« Back
NWS Peachtree City, Ga » Text Product » AHN Terminal Aerodrome Forecast


Printer-friendly Version
Current Version              Previous Versions:   1  2  3  4  5  6  7  8  9  

Terminal Aerodrome Forecast

325
FTUS42 KFFC 030308 AAA
TAFAHN
TAF AMD
KAHN 030308Z 0303/0324 VRB03KT P6SM FEW003 SCT040 BKN080
     FM030600 VRB03KT 2SM BR BKN004
     FM031200 23005KT 3SM BR BKN012
     FM031400 25012KT P6SM BKN025 BKN250
     FM031600 26012G18KT P6SM SCT050 BKN250 PROB30 0318/0323 4SM
      TSRA BKN025CB=



USA.gov is the U.S. government's official web portal to all federal, state and local government web resources and services.